Station: ELLX - 24/04/2019 08:50Z (il y a 6 minutes)
ELLX 240850Z 19010KT 150V220 CAVOK 17/09 Q1002 NOSIG
Vent du 190º - 10 kt (vent de direction variable de 150º à 220º)
Visibilité > 10 km et plafond haut ou pas de nuages significatifs
Température: +17ºC - Point de rosée: +09ºC - QNH: 1002 hPa
Pas de changement significatif prévu dans les 2 heures qui suivent l'observation